sensor_id;sensor_type;location;lat;lon;timestamp;pressure;altitude;pressure_sealevel;temperature;humidity
29379;BME280;16362;47.202;15.258;2023-02-11T00:01:26;98050.75;;;-6.06;100.00
29379;BME280;16362;47.202;15.258;2023-02-11T00:06:33;98043.75;;;-6.03;100.00
29379;BME280;16362;47.202;15.258;2023-02-11T00:09:00;98043.88;;;-6.09;100.00
29379;BME280;16362;47.202;15.258;2023-02-11T00:11:27;98041.25;;;-6.09;100.00
29379;BME280;16362;47.202;15.258;2023-02-11T00:13:59;98049.13;;;-6.12;100.00
29379;BME280;16362;47.202;15.258;2023-02-11T00:16:28;98042.25;;;-6.15;100.00
29379;BME280;16362;47.202;15.258;2023-02-11T00:18:55;98040.50;;;-6.13;100.00
29379;BME280;16362;47.202;15.258;2023-02-11T00:21:24;98036.97;;;-6.10;100.00
29379;BME280;16362;47.202;15.258;2023-02-11T00:23:51;98035.31;;;-6.14;100.00
29379;BME280;16362;47.202;15.258;2023-02-11T00:26:28;98038.84;;;-6.17;100.00
29379;BME280;16362;47.202;15.258;2023-02-11T00:28:55;98032.00;;;-6.24;100.00
29379;BME280;16362;47.202;15.258;2023-02-11T00:31:23;98032.75;;;-6.17;100.00
29379;BME280;16362;47.202;15.258;2023-02-11T00:33:50;98037.00;;;-6.13;100.00
29379;BME280;16362;47.202;15.258;2023-02-11T00:36:21;98038.91;;;-6.21;100.00
29379;BME280;16362;47.202;15.258;2023-02-11T00:38:48;98041.63;;;-6.28;100.00
29379;BME280;16362;47.202;15.258;2023-02-11T00:41:16;98041.66;;;-6.31;100.00
29379;BME280;16362;47.202;15.258;2023-02-11T00:43:43;98043.44;;;-6.33;100.00
29379;BME280;16362;47.202;15.258;2023-02-11T00:50:01;98036.50;;;-6.34;100.00
29379;BME280;16362;47.202;15.258;2023-02-11T00:52:30;98034.78;;;-6.35;100.00
29379;BME280;16362;47.202;15.258;2023-02-11T00:54:57;98026.22;;;-6.40;100.00
29379;BME280;16362;47.202;15.258;2023-02-11T00:57:24;98030.63;;;-6.44;100.00
29379;BME280;16362;47.202;15.258;2023-02-11T00:59:50;98020.31;;;-6.48;100.00
29379;BME280;16362;47.202;15.258;2023-02-11T01:02:17;98021.22;;;-6.51;100.00
29379;BME280;16362;47.202;15.258;2023-02-11T01:04:43;98019.47;;;-6.49;100.00
29379;BME280;16362;47.202;15.258;2023-02-11T01:07:10;98005.78;;;-6.58;100.00
29379;BME280;16362;47.202;15.258;2023-02-11T01:09:37;98001.38;;;-6.55;100.00
29379;BME280;16362;47.202;15.258;2023-02-11T01:12:04;97996.06;;;-6.49;100.00
29379;BME280;16362;47.202;15.258;2023-02-11T01:14:31;97994.31;;;-6.47;100.00
29379;BME280;16362;47.202;15.258;2023-02-11T01:16:58;97988.31;;;-6.50;100.00
29379;BME280;16362;47.202;15.258;2023-02-11T01:19:25;97990.03;;;-6.49;100.00
29379;BME280;16362;47.202;15.258;2023-02-11T01:21:51;97981.38;;;-6.50;100.00
29379;BME280;16362;47.202;15.258;2023-02-11T01:24:18;97984.78;;;-6.46;100.00
29379;BME280;16362;47.202;15.258;2023-02-11T01:26:44;97977.09;;;-6.54;100.00
29379;BME280;16362;47.202;15.258;2023-02-11T01:29:11;97976.28;;;-6.54;100.00
29379;BME280;16362;47.202;15.258;2023-02-11T01:31:38;97971.09;;;-6.56;100.00
29379;BME280;16362;47.202;15.258;2023-02-11T01:34:04;97964.16;;;-6.55;100.00
29379;BME280;16362;47.202;15.258;2023-02-11T01:36:31;97967.59;;;-6.53;100.00
29379;BME280;16362;47.202;15.258;2023-02-11T01:38:58;97969.34;;;-6.55;100.00
29379;BME280;16362;47.202;15.258;2023-02-11T01:41:25;97953.94;;;-6.65;100.00
29379;BME280;16362;47.202;15.258;2023-02-11T01:43:52;97961.81;;;-6.69;100.00
29379;BME280;16362;47.202;15.258;2023-02-11T01:46:37;97955.88;;;-6.76;100.00
29379;BME280;16362;47.202;15.258;2023-02-11T01:49:08;97950.56;;;-6.71;100.00
29379;BME280;16362;47.202;15.258;2023-02-11T01:51:44;97957.63;;;-6.78;100.00
29379;BME280;16362;47.202;15.258;2023-02-11T01:54:17;97954.97;;;-6.73;100.00
29379;BME280;16362;47.202;15.258;2023-02-11T01:57:05;97948.69;;;-6.63;100.00
29379;BME280;16362;47.202;15.258;2023-02-11T01:59:56;97954.88;;;-6.69;100.00
29379;BME280;16362;47.202;15.258;2023-02-11T02:02:46;97955.06;;;-6.81;100.00
29379;BME280;16362;47.202;15.258;2023-02-11T02:05:31;97949.25;;;-6.96;100.00
29379;BME280;16362;47.202;15.258;2023-02-11T02:10:33;97957.94;;;-6.97;100.00
29379;BME280;16362;47.202;15.258;2023-02-11T02:13:01;97954.59;;;-7.05;100.00
29379;BME280;16362;47.202;15.258;2023-02-11T02:15:35;97949.38;;;-7.02;100.00
29379;BME280;16362;47.202;15.258;2023-02-11T02:18:26;97939.97;;;-7.11;100.00
29379;BME280;16362;47.202;15.258;2023-02-11T02:29:42;97933.47;;;-6.83;100.00
29379;BME280;16362;47.202;15.258;2023-02-11T02:38:07;97921.75;;;-7.06;100.00
29379;BME280;16362;47.202;15.258;2023-02-11T02:40:44;97919.09;;;-7.03;100.00
29379;BME280;16362;47.202;15.258;2023-02-11T02:43:12;97913.06;;;-7.05;100.00
29379;BME280;16362;47.202;15.258;2023-02-11T02:45:53;97898.38;;;-7.04;100.00
29379;BME280;16362;47.202;15.258;2023-02-11T02:48:28;97919.97;;;-7.04;100.00
29379;BME280;16362;47.202;15.258;2023-02-11T02:53:43;97912.25;;;-7.07;100.00
29379;BME280;16362;47.202;15.258;2023-02-11T02:57:03;97899.22;;;-7.04;100.00
29379;BME280;16362;47.202;15.258;2023-02-11T03:05:47;97901.78;;;-7.02;100.00
29379;BME280;16362;47.202;15.258;2023-02-11T03:08:26;97909.69;;;-7.08;100.00
29379;BME280;16362;47.202;15.258;2023-02-11T03:10:56;97908.00;;;-7.11;100.00
29379;BME280;16362;47.202;15.258;2023-02-11T03:13:28;97907.94;;;-7.08;100.00
29379;BME280;16362;47.202;15.258;2023-02-11T03:16:10;97900.16;;;-7.08;100.00
29379;BME280;16362;47.202;15.258;2023-02-11T03:18:41;97907.91;;;-7.06;100.00
29379;BME280;16362;47.202;15.258;2023-02-11T03:21:10;97897.47;;;-7.02;100.00
29379;BME280;16362;47.202;15.258;2023-02-11T03:35:43;97878.31;;;-6.96;100.00
29379;BME280;16362;47.202;15.258;2023-02-11T03:38:34;97873.75;;;-6.82;100.00
29379;BME280;16362;47.202;15.258;2023-02-11T03:41:05;97862.69;;;-6.93;100.00
29379;BME280;16362;47.202;15.258;2023-02-11T03:43:37;97867.19;;;-7.03;100.00
29379;BME280;16362;47.202;15.258;2023-02-11T03:46:23;97867.28;;;-7.09;100.00
29379;BME280;16362;47.202;15.258;2023-02-11T03:48:57;97867.16;;;-7.01;100.00
29379;BME280;16362;47.202;15.258;2023-02-11T03:51:25;97867.19;;;-7.03;100.00
29379;BME280;16362;47.202;15.258;2023-02-11T03:53:55;97857.66;;;-7.02;100.00
29379;BME280;16362;47.202;15.258;2023-02-11T03:56:27;97853.34;;;-7.02;100.00
29379;BME280;16362;47.202;15.258;2023-02-11T03:58:55;97859.41;;;-7.03;100.00
29379;BME280;16362;47.202;15.258;2023-02-11T04:01:22;97856.03;;;-7.08;100.00
29379;BME280;16362;47.202;15.258;2023-02-11T04:03:49;97863.00;;;-7.10;100.00
29379;BME280;16362;47.202;15.258;2023-02-11T04:06:15;97862.06;;;-7.06;100.00
29379;BME280;16362;47.202;15.258;2023-02-11T04:08:42;97859.59;;;-7.14;100.00
29379;BME280;16362;47.202;15.258;2023-02-11T04:11:09;97851.81;;;-7.14;100.00
29379;BME280;16362;47.202;15.258;2023-02-11T04:13:35;97850.97;;;-7.14;100.00
29379;BME280;16362;47.202;15.258;2023-02-11T04:16:02;97853.59;;;-7.17;100.00
29379;BME280;16362;47.202;15.258;2023-02-11T04:18:29;97849.13;;;-7.09;100.00
29379;BME280;16362;47.202;15.258;2023-02-11T04:20:56;97857.88;;;-7.15;100.00
29379;BME280;16362;47.202;15.258;2023-02-11T04:23:22;97851.81;;;-7.14;100.00
29379;BME280;16362;47.202;15.258;2023-02-11T04:25:49;97848.28;;;-7.09;100.00
29379;BME280;16362;47.202;15.258;2023-02-11T04:28:17;97839.56;;;-7.05;100.00
29379;BME280;16362;47.202;15.258;2023-02-11T04:30:43;97839.16;;;-6.84;100.00
29379;BME280;16362;47.202;15.258;2023-02-11T04:33:10;97841.91;;;-6.93;100.00
29379;BME280;16362;47.202;15.258;2023-02-11T04:35:37;97827.16;;;-6.89;100.00
29379;BME280;16362;47.202;15.258;2023-02-11T04:38:04;97839.47;;;-7.01;100.00
29379;BME280;16362;47.202;15.258;2023-02-11T04:40:42;97826.28;;;-6.88;100.00
29379;BME280;16362;47.202;15.258;2023-02-11T04:43:09;97818.59;;;-6.95;100.00
29379;BME280;16362;47.202;15.258;2023-02-11T04:45:35;97828.09;;;-6.94;100.00
29379;BME280;16362;47.202;15.258;2023-02-11T04:48:02;97825.47;;;-6.92;100.00
29379;BME280;16362;47.202;15.258;2023-02-11T04:50:29;97819.47;;;-6.96;100.00
29379;BME280;16362;47.202;15.258;2023-02-11T04:52:56;97813.38;;;-6.93;100.00
29379;BME280;16362;47.202;15.258;2023-02-11T04:55:23;97814.16;;;-6.89;100.00
29379;BME280;16362;47.202;15.258;2023-02-11T04:57:49;97816.69;;;-6.86;100.00
29379;BME280;16362;47.202;15.258;2023-02-11T05:00:16;97808.50;;;-6.65;100.00
29379;BME280;16362;47.202;15.258;2023-02-11T05:02:43;97806.97;;;-6.75;100.00
29379;BME280;16362;47.202;15.258;2023-02-11T05:05:17;97801.06;;;-6.82;100.00
29379;BME280;16362;47.202;15.258;2023-02-11T05:10:23;97802.00;;;-6.86;100.00
29379;BME280;16362;47.202;15.258;2023-02-11T05:12:50;97800.00;;;-6.73;100.00
29379;BME280;16362;47.202;15.258;2023-02-11T05:15:20;97789.53;;;-6.70;100.00
29379;BME280;16362;47.202;15.258;2023-02-11T05:17:47;97795.56;;;-6.68;100.00
29379;BME280;16362;47.202;15.258;2023-02-11T05:20:13;97803.47;;;-6.74;100.00
29379;BME280;16362;47.202;15.258;2023-02-11T05:22:40;97797.44;;;-6.74;100.00
29379;BME280;16362;47.202;15.258;2023-02-11T05:25:07;97792.34;;;-6.79;100.00
29379;BME280;16362;47.202;15.258;2023-02-11T05:27:34;97790.31;;;-6.65;100.00
29379;BME280;16362;47.202;15.258;2023-02-11T05:30:01;97790.47;;;-6.71;100.00
29379;BME280;16362;47.202;15.258;2023-02-11T05:32:27;97795.19;;;-6.48;100.00
29379;BME280;16362;47.202;15.258;2023-02-11T05:34:54;97798.75;;;-6.55;100.00
29379;BME280;16362;47.202;15.258;2023-02-11T05:37:21;97795.44;;;-6.62;100.00
29379;BME280;16362;47.202;15.258;2023-02-11T05:39:47;97792.91;;;-6.65;100.00
29379;BME280;16362;47.202;15.258;2023-02-11T05:42:14;97803.44;;;-6.71;100.00
29379;BME280;16362;47.202;15.258;2023-02-11T05:44:41;97792.16;;;-6.70;100.00
29379;BME280;16362;47.202;15.258;2023-02-11T05:47:07;97792.16;;;-6.70;100.00
29379;BME280;16362;47.202;15.258;2023-02-11T05:49:34;97802.75;;;-6.79;100.00
29379;BME280;16362;47.202;15.258;2023-02-11T05:53:44;97798.44;;;-6.80;100.00
29379;BME280;16362;47.202;15.258;2023-02-11T05:56:11;97799.59;;;-6.98;100.00
29379;BME280;16362;47.202;15.258;2023-02-11T05:58:37;97798.66;;;-6.92;100.00
29379;BME280;16362;47.202;15.258;2023-02-11T06:01:04;97798.53;;;-6.86;100.00
29379;BME280;16362;47.202;15.258;2023-02-11T06:03:31;97780.44;;;-6.89;100.00
29379;BME280;16362;47.202;15.258;2023-02-11T06:05:58;97782.91;;;-6.85;100.00
29379;BME280;16362;47.202;15.258;2023-02-11T06:08:24;97775.09;;;-6.82;100.00
29379;BME280;16362;47.202;15.258;2023-02-11T06:10:51;97780.28;;;-6.82;100.00
29379;BME280;16362;47.202;15.258;2023-02-11T06:13:18;97773.13;;;-6.70;100.00
29379;BME280;16362;47.202;15.258;2023-02-11T06:15:54;97770.38;;;-6.63;100.00
29379;BME280;16362;47.202;15.258;2023-02-11T06:18:33;97761.44;;;-6.49;100.00
29379;BME280;16362;47.202;15.258;2023-02-11T06:21:00;97764.56;;;-6.35;100.00
29379;BME280;16362;47.202;15.258;2023-02-11T06:23:27;97764.28;;;-6.21;100.00
29379;BME280;16362;47.202;15.258;2023-02-11T06:26:00;97769.53;;;-6.24;100.00
29379;BME280;16362;47.202;15.258;2023-02-11T06:28:27;97770.25;;;-6.17;100.00
29379;BME280;16362;47.202;15.258;2023-02-11T06:30:54;97772.84;;;-6.17;100.00
29379;BME280;16362;47.202;15.258;2023-02-11T06:33:21;97768.78;;;-6.29;100.00
29379;BME280;16362;47.202;15.258;2023-02-11T06:35:48;97786.28;;;-6.36;100.00
29379;BME280;16362;47.202;15.258;2023-02-11T06:38:15;97778.53;;;-6.39;100.00
29379;BME280;16362;47.202;15.258;2023-02-11T06:40:46;97773.25;;;-6.34;100.00
29379;BME280;16362;47.202;15.258;2023-02-11T06:43:14;97780.84;;;-6.27;100.00
29379;BME280;16362;47.202;15.258;2023-02-11T06:45:40;97775.88;;;-6.36;100.00
29379;BME280;16362;47.202;15.258;2023-02-11T06:48:08;97785.41;;;-6.36;100.00
29379;BME280;16362;47.202;15.258;2023-02-11T06:50:34;97786.25;;;-6.34;100.00
29379;BME280;16362;47.202;15.258;2023-02-11T06:53:01;97771.22;;;-6.21;100.00
29379;BME280;16362;47.202;15.258;2023-02-11T06:55:28;97784.84;;;-6.12;100.00
29379;BME280;16362;47.202;15.258;2023-02-11T06:57:54;97780.41;;;-6.06;100.00
29379;BME280;16362;47.202;15.258;2023-02-11T07:00:21;97773.56;;;-5.75;100.00
29379;BME280;16362;47.202;15.258;2023-02-11T07:02:48;97783.44;;;-5.89;100.00
29379;BME280;16362;47.202;15.258;2023-02-11T07:05:14;97781.69;;;-5.87;100.00
29379;BME280;16362;47.202;15.258;2023-02-11T07:07:53;97777.31;;;-5.86;100.00
29379;BME280;16362;47.202;15.258;2023-02-11T07:11:27;97777.31;;;-5.86;100.00
29379;BME280;16362;47.202;15.258;2023-02-11T07:13:58;97778.16;;;-5.84;100.00
29379;BME280;16362;47.202;15.258;2023-02-11T07:16:26;97779.53;;;-5.69;100.00
29379;BME280;16362;47.202;15.258;2023-02-11T07:18:53;97771.28;;;-5.52;100.00
29379;BME280;16362;47.202;15.258;2023-02-11T07:21:20;97763.16;;;-5.38;100.00
29379;BME280;16362;47.202;15.258;2023-02-11T07:23:47;97758.84;;;-5.39;100.00
29379;BME280;16362;47.202;15.258;2023-02-11T07:26:17;97773.03;;;-5.18;100.00
29379;BME280;16362;47.202;15.258;2023-02-11T07:28:44;97780.59;;;-5.09;100.00
29379;BME280;16362;47.202;15.258;2023-02-11T07:31:22;97788.00;;;-4.94;100.00
29379;BME280;16362;47.202;15.258;2023-02-11T07:33:51;97775.25;;;-5.03;100.00
29379;BME280;16362;47.202;15.258;2023-02-11T07:36:19;97774.91;;;-4.91;100.00
29379;BME280;16362;47.202;15.258;2023-02-11T07:38:46;97768.41;;;-4.76;100.00
29379;BME280;16362;47.202;15.258;2023-02-11T07:41:18;97770.88;;;-4.40;100.00
29379;BME280;16362;47.202;15.258;2023-02-11T07:43:45;97771.16;;;-4.20;100.00
29379;BME280;16362;47.202;15.258;2023-02-11T07:46:30;97765.47;;;-4.05;100.00
29379;BME280;16362;47.202;15.258;2023-02-11T07:48:57;97767.19;;;-4.04;100.00
29379;BME280;16362;47.202;15.258;2023-02-11T07:51:26;97764.47;;;-4.01;99.85
29379;BME280;16362;47.202;15.258;2023-02-11T07:53:53;97765.59;;;-4.08;100.00
29379;BME280;16362;47.202;15.258;2023-02-11T07:56:21;97756.38;;;-3.92;100.00
29379;BME280;16362;47.202;15.258;2023-02-11T07:58:49;97759.63;;;-3.85;100.00
29379;BME280;16362;47.202;15.258;2023-02-11T08:01:28;97750.06;;;-3.58;100.00
29379;BME280;16362;47.202;15.258;2023-02-11T08:03:57;97756.09;;;-3.30;100.00
29379;BME280;16362;47.202;15.258;2023-02-11T08:06:27;97750.53;;;-2.94;97.90
29379;BME280;16362;47.202;15.258;2023-02-11T08:08:54;97752.31;;;-2.71;95.95
29379;BME280;16362;47.202;15.258;2023-02-11T08:11:23;97747.09;;;-2.47;95.44
29379;BME280;16362;47.202;15.258;2023-02-11T08:13:52;97746.16;;;-2.23;95.70
29379;BME280;16362;47.202;15.258;2023-02-11T08:16:25;97745.75;;;-1.90;91.13
29379;BME280;16362;47.202;15.258;2023-02-11T08:18:55;97735.44;;;-1.72;93.34
29379;BME280;16362;47.202;15.258;2023-02-11T08:22:02;97733.19;;;-1.81;91.96
29379;BME280;16362;47.202;15.258;2023-02-11T08:24:29;97733.69;;;-1.72;89.28
29379;BME280;16362;47.202;15.258;2023-02-11T08:26:56;97734.72;;;-1.33;92.52
29379;BME280;16362;47.202;15.258;2023-02-11T08:29:22;97738.34;;;-1.15;86.71
29379;BME280;16362;47.202;15.258;2023-02-11T08:31:49;97736.09;;;-1.24;87.56
29379;BME280;16362;47.202;15.258;2023-02-11T08:34:16;97741.00;;;-1.16;87.84
29379;BME280;16362;47.202;15.258;2023-02-11T08:36:45;97727.69;;;-0.91;88.84
29379;BME280;16362;47.202;15.258;2023-02-11T08:39:18;97735.84;;;-0.97;84.87
29379;BME280;16362;47.202;15.258;2023-02-11T08:41:51;97734.91;;;-0.76;88.22
29379;BME280;16362;47.202;15.258;2023-02-11T08:44:20;97736.41;;;-0.32;85.32
29379;BME280;16362;47.202;15.258;2023-02-11T08:46:47;97736.69;;;-0.38;79.17
29379;BME280;16362;47.202;15.258;2023-02-11T08:49:14;97731.97;;;-0.11;80.70
29379;BME280;16362;47.202;15.258;2023-02-11T08:51:42;97732.88;;;-0.31;80.44
29379;BME280;16362;47.202;15.258;2023-02-11T08:54:09;97735.06;;;-0.03;78.77
29379;BME280;16362;47.202;15.258;2023-02-11T08:56:37;97727.97;;;-0.39;76.74
29379;BME280;16362;47.202;15.258;2023-02-11T08:59:04;97725.84;;;-0.11;79.78
29379;BME280;16362;47.202;15.258;2023-02-11T09:01:32;97710.78;;;0.11;77.57
29379;BME280;16362;47.202;15.258;2023-02-11T09:03:59;97714.44;;;-0.10;74.37
29379;BME280;16362;47.202;15.258;2023-02-11T09:06:27;97708.16;;;0.11;72.92
29379;BME280;16362;47.202;15.258;2023-02-11T09:09:10;97715.13;;;0.30;75.13
29379;BME280;16362;47.202;15.258;2023-02-11T09:11:37;97706.31;;;0.48;73.39
29379;BME280;16362;47.202;15.258;2023-02-11T09:14:05;97706.41;;;0.64;72.64
29379;BME280;16362;47.202;15.258;2023-02-11T09:16:34;97702.63;;;0.70;70.62
29379;BME280;16362;47.202;15.258;2023-02-11T09:19:03;97707.41;;;0.79;71.67
29379;BME280;16362;47.202;15.258;2023-02-11T09:21:30;97714.66;;;0.92;69.57
29379;BME280;16362;47.202;15.258;2023-02-11T09:23:57;97705.22;;;1.05;68.97
29379;BME280;16362;47.202;15.258;2023-02-11T09:26:26;97698.66;;;1.14;68.21
29379;BME280;16362;47.202;15.258;2023-02-11T09:28:54;97697.16;;;1.08;70.29
29379;BME280;16362;47.202;15.258;2023-02-11T09:31:23;97698.03;;;1.09;69.49
29379;BME280;16362;47.202;15.258;2023-02-11T09:33:54;97689.75;;;1.16;71.51
29379;BME280;16362;47.202;15.258;2023-02-11T09:36:27;97692.66;;;1.28;66.79
29379;BME280;16362;47.202;15.258;2023-02-11T09:38:56;97698.06;;;1.25;67.82
29379;BME280;16362;47.202;15.258;2023-02-11T09:43:57;97683.66;;;0.98;67.28
29379;BME280;16362;47.202;15.258;2023-02-11T09:46:26;97676.31;;;1.05;68.49
29379;BME280;16362;47.202;15.258;2023-02-11T09:48:56;97662.06;;;1.59;68.09
29379;BME280;16362;47.202;15.258;2023-02-11T09:54:00;97652.09;;;1.96;65.10
29379;BME280;16362;47.202;15.258;2023-02-11T09:56:31;97645.47;;;2.05;63.33
29379;BME280;16362;47.202;15.258;2023-02-11T09:58:57;97651.16;;;1.97;62.29
29379;BME280;16362;47.202;15.258;2023-02-11T10:01:50;97660.06;;;2.10;62.09
29379;BME280;16362;47.202;15.258;2023-02-11T10:09:46;97655.81;;;2.38;62.86
29379;BME280;16362;47.202;15.258;2023-02-11T10:22:36;97628.94;;;3.07;53.44
29379;BME280;16362;47.202;15.258;2023-02-11T10:25:37;97622.72;;;3.08;56.16
29379;BME280;16362;47.202;15.258;2023-02-11T10:28:18;97614.88;;;3.35;53.60
29379;BME280;16362;47.202;15.258;2023-02-11T10:30:58;97616.94;;;3.44;55.78
29379;BME280;16362;47.202;15.258;2023-02-11T10:33:30;97609.38;;;3.52;55.43
29379;BME280;16362;47.202;15.258;2023-02-11T10:35:59;97605.13;;;3.50;52.09
29379;BME280;16362;47.202;15.258;2023-02-11T10:38:26;97610.50;;;3.48;50.96
29379;BME280;16362;47.202;15.258;2023-02-11T10:40:53;97594.91;;;3.73;51.72
29379;BME280;16362;47.202;15.258;2023-02-11T10:43:23;97589.22;;;4.06;51.93
29379;BME280;16362;47.202;15.258;2023-02-11T10:45:53;97582.50;;;4.00;50.40
29379;BME280;16362;47.202;15.258;2023-02-11T10:56:07;97584.59;;;4.35;46.14
29379;BME280;16362;47.202;15.258;2023-02-11T10:58:44;97578.59;;;4.33;47.47
29379;BME280;16362;47.202;15.258;2023-02-11T11:01:11;97567.88;;;4.09;47.46
29379;BME280;16362;47.202;15.258;2023-02-11T11:03:51;97563.19;;;4.00;47.99
29379;BME280;16362;47.202;15.258;2023-02-11T11:06:31;97562.91;;;4.17;48.77
29379;BME280;16362;47.202;15.258;2023-02-11T11:08:59;97567.53;;;4.01;49.17
29379;BME280;16362;47.202;15.258;2023-02-11T11:11:26;97572.88;;;3.86;50.93
29379;BME280;16362;47.202;15.258;2023-02-11T11:13:54;97568.00;;;3.80;49.88
29379;BME280;16362;47.202;15.258;2023-02-11T11:16:34;97565.53;;;3.77;50.04
29379;BME280;16362;47.202;15.258;2023-02-11T11:24:01;97537.78;;;4.76;50.18
29379;BME280;16362;47.202;15.258;2023-02-11T11:26:40;97545.22;;;4.71;49.20
29379;BME280;16362;47.202;15.258;2023-02-11T11:29:21;97543.03;;;5.02;46.81
29379;BME280;16362;47.202;15.258;2023-02-11T11:32:00;97540.03;;;5.19;46.88
29379;BME280;16362;47.202;15.258;2023-02-11T11:34:33;97526.00;;;5.43;48.48
29379;BME280;16362;47.202;15.258;2023-02-11T11:37:25;97528.00;;;5.52;46.23
29379;BME280;16362;47.202;15.258;2023-02-11T11:40:00;97512.94;;;5.53;48.03
29379;BME280;16362;47.202;15.258;2023-02-11T11:42:28;97511.06;;;5.66;45.09
29379;BME280;16362;47.202;15.258;2023-02-11T11:45:25;97495.94;;;5.68;45.67
29379;BME280;16362;47.202;15.258;2023-02-11T11:50:42;97497.28;;;5.74;43.56
29379;BME280;16362;47.202;15.258;2023-02-11T11:55:43;97486.19;;;5.80;43.41
29379;BME280;16362;47.202;15.258;2023-02-11T11:58:21;97487.66;;;5.84;46.15
29379;BME280;16362;47.202;15.258;2023-02-11T12:10:36;97475.84;;;5.77;45.23
29379;BME280;16362;47.202;15.258;2023-02-11T12:25:03;97465.09;;;5.67;44.01
29379;BME280;16362;47.202;15.258;2023-02-11T12:27:46;97448.84;;;5.72;44.32
29379;BME280;16362;47.202;15.258;2023-02-11T12:56:31;97385.16;;;5.27;49.45
29379;BME280;16362;47.202;15.258;2023-02-11T12:59:03;97377.34;;;5.01;52.00
29379;BME280;16362;47.202;15.258;2023-02-11T13:01:34;97375.97;;;4.95;51.87
29379;BME280;16362;47.202;15.258;2023-02-11T13:04:15;97374.66;;;4.77;50.79
29379;BME280;16362;47.202;15.258;2023-02-11T13:06:49;97368.75;;;4.97;46.47
29379;BME280;16362;47.202;15.258;2023-02-11T13:09:25;97359.63;;;5.26;49.02
29379;BME280;16362;47.202;15.258;2023-02-11T13:11:56;97357.50;;;5.06;54.08
29379;BME280;16362;47.202;15.258;2023-02-11T13:14:46;97359.13;;;4.72;52.37
29379;BME280;16362;47.202;15.258;2023-02-11T13:17:35;97359.47;;;4.54;50.81
29379;BME280;16362;47.202;15.258;2023-02-11T13:23:29;97365.88;;;4.26;52.77
29379;BME280;16362;47.202;15.258;2023-02-11T13:26:35;97367.22;;;4.45;50.85
29379;BME280;16362;47.202;15.258;2023-02-11T13:29:28;97366.63;;;4.41;52.05
29379;BME280;16362;47.202;15.258;2023-02-11T13:32:07;97376.75;;;4.47;54.50
29379;BME280;16362;47.202;15.258;2023-02-11T13:42:28;97374.50;;;5.15;52.27
29379;BME280;16362;47.202;15.258;2023-02-11T13:44:56;97359.22;;;5.54;46.42
29379;BME280;16362;47.202;15.258;2023-02-11T13:47:33;97363.81;;;5.52;52.97
29379;BME280;16362;47.202;15.258;2023-02-11T13:50:02;97363.69;;;5.54;52.20
29379;BME280;16362;47.202;15.258;2023-02-11T13:52:36;97370.63;;;5.44;52.57
29379;BME280;16362;47.202;15.258;2023-02-11T13:57:40;97388.06;;;5.35;55.27
29379;BME280;16362;47.202;15.258;2023-02-11T14:11:45;97377.50;;;5.11;54.34
29379;BME280;16362;47.202;15.258;2023-02-11T14:14:27;97380.66;;;4.92;56.15
29379;BME280;16362;47.202;15.258;2023-02-11T14:19:31;97378.50;;;4.72;57.92
29379;BME280;16362;47.202;15.258;2023-02-11T14:22:12;97373.81;;;4.76;60.84
29379;BME280;16362;47.202;15.258;2023-02-11T14:25:01;97370.91;;;5.16;57.28
29379;BME280;16362;47.202;15.258;2023-02-11T14:35:11;97368.94;;;4.46;59.63
29379;BME280;16362;47.202;15.258;2023-02-11T14:37:53;97367.47;;;4.29;60.57
29379;BME280;16362;47.202;15.258;2023-02-11T14:42:50;97369.94;;;4.19;61.29
29379;BME280;16362;47.202;15.258;2023-02-11T14:45:23;97364.59;;;4.45;58.04
29379;BME280;16362;47.202;15.258;2023-02-11T14:51:06;97369.50;;;4.12;61.53
29379;BME280;16362;47.202;15.258;2023-02-11T14:53:35;97372.78;;;4.03;61.98
29379;BME280;16362;47.202;15.258;2023-02-11T14:56:16;97379.44;;;3.96;59.75
29379;BME280;16362;47.202;15.258;2023-02-11T14:58:48;97373.34;;;3.95;65.40
29379;BME280;16362;47.202;15.258;2023-02-11T15:01:32;97366.94;;;4.36;59.67
29379;BME280;16362;47.202;15.258;2023-02-11T15:04:02;97365.28;;;4.22;60.32
29379;BME280;16362;47.202;15.258;2023-02-11T15:06:36;97372.59;;;4.06;63.00
29379;BME280;16362;47.202;15.258;2023-02-11T15:09:05;97364.44;;;3.96;64.27
29379;BME280;16362;47.202;15.258;2023-02-11T15:11:38;97365.72;;;3.91;64.42
29379;BME280;16362;47.202;15.258;2023-02-11T15:14:09;97370.06;;;3.92;64.92
29379;BME280;16362;47.202;15.258;2023-02-11T15:16:42;97364.47;;;3.83;64.08
29379;BME280;16362;47.202;15.258;2023-02-11T15:19:25;97377.88;;;3.80;64.52
29379;BME280;16362;47.202;15.258;2023-02-11T15:21:54;97376.91;;;3.81;65.05
29379;BME280;16362;47.202;15.258;2023-02-11T15:24:30;97363.59;;;3.83;64.42
29379;BME280;16362;47.202;15.258;2023-02-11T15:27:02;97362.44;;;3.74;65.55
29379;BME280;16362;47.202;15.258;2023-02-11T15:29:38;97368.06;;;3.69;67.12
29379;BME280;16362;47.202;15.258;2023-02-11T15:34:35;97379.63;;;3.54;65.68
29379;BME280;16362;47.202;15.258;2023-02-11T15:37:03;97385.34;;;3.48;67.56
29379;BME280;16362;47.202;15.258;2023-02-11T15:39:36;97383.06;;;3.29;67.55
29379;BME280;16362;47.202;15.258;2023-02-11T15:44:49;97372.75;;;3.51;64.70
29379;BME280;16362;47.202;15.258;2023-02-11T15:47:22;97388.88;;;3.34;64.99
29379;BME280;16362;47.202;15.258;2023-02-11T15:49:49;97381.94;;;3.33;68.17
29379;BME280;16362;47.202;15.258;2023-02-11T15:52:25;97377.25;;;3.24;66.12
29379;BME280;16362;47.202;15.258;2023-02-11T15:54:55;97383.25;;;3.13;68.18
29379;BME280;16362;47.202;15.258;2023-02-11T15:57:24;97382.97;;;3.03;68.45
29379;BME280;16362;47.202;15.258;2023-02-11T15:59:53;97390.66;;;2.93;70.23
29379;BME280;16362;47.202;15.258;2023-02-11T16:04:54;97406.47;;;2.93;72.38
29379;BME280;16362;47.202;15.258;2023-02-11T16:07:49;97398.88;;;2.89;70.94
29379;BME280;16362;47.202;15.258;2023-02-11T16:10:29;97398.91;;;2.74;71.37
29379;BME280;16362;47.202;15.258;2023-02-11T16:18:29;97420.97;;;2.44;72.52
29379;BME280;16362;47.202;15.258;2023-02-11T16:21:10;97414.09;;;2.27;73.42